Time;durP1;ratioP1;P1;durP2;ratioP2;P2;SDS_P1;SDS_P2;PMS_P1;PMS_P2;Temp;Humidity;BMP_temperature;BMP_pressure;BME280_temperature;BME280_humidity;BME280_pressure;Samples;Min_cycle;Max_cycle;Signal;HPM_P1;HPM_P2
2022/10/14 00:01:32;;;;;;;;;;;20.70;57.50;;;;;;5033362;28;19917;-73
2022/10/14 00:03:58;;;;;;;;;;;20.70;57.50;;;;;;5032579;28;19910;-73
2022/10/14 00:06:25;;;;;;;;;;;20.70;57.40;;;;;;5021038;28;19932;-73
2022/10/14 00:08:50;;;;;;;;;;;20.70;57.30;;;;;;5030054;28;20266;-73
2022/10/14 00:11:20;;;;;;;;;;;20.80;57.20;;;;;;5021907;28;20016;-74
2022/10/14 00:13:45;;;;;;;;;;;20.80;57.10;;;;;;5020151;28;20510;-73
2022/10/14 00:16:18;;;;;;;;;;;20.80;57.10;;;;;;5021550;28;19914;-73
2022/10/14 00:18:45;;;;;;;;;;;20.80;57.00;;;;;;5032731;28;20377;-73
2022/10/14 00:21:10;;;;;;;;;;;20.80;57.00;;;;;;5018858;28;19921;-73
2022/10/14 00:23:36;;;;;;;;;;;20.90;56.90;;;;;;5014926;28;20673;-73
2022/10/14 00:26:01;;;;;;;;;;;20.80;56.90;;;;;;5015284;28;19917;-73
2022/10/14 00:28:27;;;;;;;;;;;20.80;56.90;;;;;;5017560;28;19924;-73
2022/10/14 00:30:53;;;;;;;;;;;20.80;57.00;;;;;;5019158;28;19913;-73
2022/10/14 00:33:19;;;;;;;;;;;20.80;57.00;;;;;;5017383;28;19913;-73
2022/10/14 00:35:51;;;;;;;;;;;20.80;57.00;;;;;;5021408;28;19963;-74
2022/10/14 00:38:17;;;;;;;;;;;20.80;57.00;;;;;;5020662;28;19913;-73
2022/10/14 00:40:42;;;;;;;;;;;20.80;57.00;;;;;;5014656;28;20028;-73
2022/10/14 00:43:12;;;;;;;;;;;20.80;57.00;;;;;;5020759;28;19920;-72
2022/10/14 00:45:38;;;;;;;;;;;20.80;57.00;;;;;;5011899;28;19914;-73
2022/10/14 00:48:04;;;;;;;;;;;20.80;56.80;;;;;;5010316;28;19924;-73
2022/10/14 00:50:29;;;;;;;;;;;20.90;56.70;;;;;;5020223;28;19921;-73
2022/10/14 00:52:55;;;;;;;;;;;20.90;56.70;;;;;;5016264;28;19917;-73
2022/10/14 00:55:20;;;;;;;;;;;20.90;56.70;;;;;;5022026;28;19975;-72
2022/10/14 00:57:46;;;;;;;;;;;20.90;56.80;;;;;;5028780;28;19924;-73
2022/10/14 01:00:12;;;;;;;;;;;20.90;56.70;;;;;;5031816;28;19913;-73
2022/10/14 01:02:38;;;;;;;;;;;20.90;56.80;;;;;;5021767;28;20270;-73
2022/10/14 01:05:04;;;;;;;;;;;20.90;56.80;;;;;;5023741;28;20007;-73
2022/10/14 01:07:31;;;;;;;;;;;20.90;56.70;;;;;;5047543;28;20309;-73
2022/10/14 01:10:01;;;;;;;;;;;20.80;56.70;;;;;;5011571;28;19917;-73
2022/10/14 01:12:46;;;;;;;;;;;20.80;56.90;;;;;;5033694;28;19920;-73
2022/10/14 01:15:21;;;;;;;;;;;20.70;56.90;;;;;;5010335;28;19912;-73
2022/10/14 01:18:05;;;;;;;;;;;20.80;57.00;;;;;;5033686;28;20372;-74
2022/10/14 01:20:33;;;;;;;;;;;20.70;57.00;;;;;;5051601;28;19913;-73
2022/10/14 01:23:05;;;;;;;;;;;20.70;57.10;;;;;;5050120;28;19963;-73
2022/10/14 01:25:30;;;;;;;;;;;20.70;57.10;;;;;;5046633;28;19924;-73
2022/10/14 01:27:56;;;;;;;;;;;20.70;57.00;;;;;;5049168;28;19916;-73
2022/10/14 01:30:22;;;;;;;;;;;20.80;57.00;;;;;;5050196;28;19908;-73
2022/10/14 01:32:49;;;;;;;;;;;20.80;56.90;;;;;;5033213;28;19931;-72
2022/10/14 01:35:36;;;;;;;;;;;20.90;56.70;;;;;;5034125;28;19944;-73
2022/10/14 01:38:22;;;;;;;;;;;21.00;56.50;;;;;;5033597;28;19912;-73
2022/10/14 01:40:50;;;;;;;;;;;21.00;56.30;;;;;;5047096;28;20006;-74
2022/10/14 01:43:16;;;;;;;;;;;21.10;56.10;;;;;;5043564;28;19979;-73
2022/10/14 01:45:42;;;;;;;;;;;21.20;56.00;;;;;;5033399;28;20284;-73
2022/10/14 01:48:07;;;;;;;;;;;21.20;56.00;;;;;;5048863;28;19917;-73
2022/10/14 01:50:33;;;;;;;;;;;21.20;56.00;;;;;;5032257;28;19916;-73
2022/10/14 01:53:03;;;;;;;;;;;21.20;56.00;;;;;;5032778;28;19908;-73
2022/10/14 01:55:29;;;;;;;;;;;21.30;56.10;;;;;;5032764;28;19909;-73
2022/10/14 01:57:55;;;;;;;;;;;21.30;56.00;;;;;;5030939;28;19960;-73
2022/10/14 02:00:21;;;;;;;;;;;21.30;55.80;;;;;;5022449;28;19956;-73
2022/10/14 02:02:46;;;;;;;;;;;21.40;55.90;;;;;;5024039;28;20483;-74
2022/10/14 02:05:14;;;;;;;;;;;21.30;55.80;;;;;;4956379;28;1767086;-73
2022/10/14 02:07:41;;;;;;;;;;;21.30;55.80;;;;;;5022313;28;19917;-73
2022/10/14 02:10:07;;;;;;;;;;;21.30;55.80;;;;;;5023766;28;19913;-74
2022/10/14 02:12:36;;;;;;;;;;;21.40;56.50;;;;;;5024553;28;20000;-74
2022/10/14 02:15:14;;;;;;;;;;;21.30;55.80;;;;;;5028480;28;19921;-73
2022/10/14 02:17:46;;;;;;;;;;;21.30;55.80;;;;;;5029019;28;20368;-73
2022/10/14 02:20:19;;;;;;;;;;;21.30;55.80;;;;;;5029691;28;19924;-73
2022/10/14 02:22:53;;;;;;;;;;;21.30;55.80;;;;;;5030143;28;19909;-73
2022/10/14 02:25:21;;;;;;;;;;;21.30;55.90;;;;;;5024598;28;19928;-73
2022/10/14 02:27:46;;;;;;;;;;;21.30;56.00;;;;;;5030298;28;19949;-73
2022/10/14 02:30:11;;;;;;;;;;;21.20;56.00;;;;;;5009582;28;19964;-73
2022/10/14 02:32:37;;;;;;;;;;;21.20;56.00;;;;;;5027524;28;19917;-73
2022/10/14 02:35:03;;;;;;;;;;;21.30;56.10;;;;;;5016569;28;19921;-73
2022/10/14 02:37:28;;;;;;;;;;;21.20;56.00;;;;;;5033204;28;20063;-73
2022/10/14 02:39:58;;;;;;;;;;;21.20;56.00;;;;;;5032943;28;19920;-74
2022/10/14 02:42:24;;;;;;;;;;;21.20;56.30;;;;;;5031835;28;19913;-73
2022/10/14 02:44:56;;;;;;;;;;;21.10;55.90;;;;;;5034068;28;19913;-73
2022/10/14 02:47:22;;;;;;;;;;;21.10;55.90;;;;;;5027040;28;19928;-73
2022/10/14 02:49:47;;;;;;;;;;;21.10;56.10;;;;;;5033160;28;20364;-73
2022/10/14 02:52:12;;;;;;;;;;;21.00;56.20;;;;;;5033439;28;20415;-73
2022/10/14 02:54:38;;;;;;;;;;;21.00;56.30;;;;;;5033006;28;19913;-73
2022/10/14 02:57:03;;;;;;;;;;;21.00;56.30;;;;;;5033666;28;19917;-73
2022/10/14 02:59:29;;;;;;;;;;;21.00;56.30;;;;;;5029704;28;19913;-73
2022/10/14 03:01:54;;;;;;;;;;;21.00;56.40;;;;;;5029049;28;19948;-74
2022/10/14 03:04:20;;;;;;;;;;;21.00;56.20;;;;;;5027524;28;19917;-73
2022/10/14 03:06:45;;;;;;;;;;;21.00;56.70;;;;;;5046238;28;19916;-73
2022/10/14 03:09:11;;;;;;;;;;;21.00;56.30;;;;;;5033209;28;19963;-73
2022/10/14 03:11:36;;;;;;;;;;;21.00;56.30;;;;;;5046548;28;19924;-73
2022/10/14 03:14:02;;;;;;;;;;;20.90;56.40;;;;;;5050723;28;19920;-74
2022/10/14 03:16:27;;;;;;;;;;;20.80;56.40;;;;;;5047648;28;19970;-73
2022/10/14 03:18:52;;;;;;;;;;;20.80;56.60;;;;;;5053291;28;19913;-74
2022/10/14 03:21:18;;;;;;;;;;;20.80;56.70;;;;;;5053509;28;20377;-73
2022/10/14 03:23:44;;;;;;;;;;;20.70;56.70;;;;;;5055057;28;19913;-73
2022/10/14 03:26:09;;;;;;;;;;;20.80;56.80;;;;;;5054441;28;19916;-73
2022/10/14 03:28:35;;;;;;;;;;;20.70;56.80;;;;;;5035059;28;19939;-73
2022/10/14 03:31:00;;;;;;;;;;;20.70;56.90;;;;;;5048510;28;19920;-74
2022/10/14 03:33:26;;;;;;;;;;;20.70;56.90;;;;;;5054531;28;19924;-72
2022/10/14 03:35:51;;;;;;;;;;;20.70;57.00;;;;;;5036704;28;20007;-73
2022/10/14 03:38:17;;;;;;;;;;;20.70;56.90;;;;;;5054481;28;19916;-74
2022/10/14 03:40:42;;;;;;;;;;;20.70;56.90;;;;;;5054320;28;20317;-73
2022/10/14 03:43:08;;;;;;;;;;;20.80;56.90;;;;;;5036502;28;19909;-72
2022/10/14 03:45:33;;;;;;;;;;;20.80;56.70;;;;;;5035865;28;21198;-73
2022/10/14 03:47:58;;;;;;;;;;;20.80;56.60;;;;;;5031423;28;19917;-73
2022/10/14 03:50:24;;;;;;;;;;;20.90;56.60;;;;;;5048906;28;19916;-73
2022/10/14 03:52:49;;;;;;;;;;;20.90;56.30;;;;;;5036809;28;19909;-73
2022/10/14 03:55:15;;;;;;;;;;;21.00;56.30;;;;;;5035526;28;19916;-73
2022/10/14 03:57:40;;;;;;;;;;;21.00;56.20;;;;;;5054353;28;19921;-73
2022/10/14 04:00:06;;;;;;;;;;;21.00;56.00;;;;;;5054023;28;19919;-73
2022/10/14 04:02:31;;;;;;;;;;;21.10;55.90;;;;;;5053604;28;19963;-74
2022/10/14 04:04:57;;;;;;;;;;;21.10;55.90;;;;;;5051750;28;19948;-73
2022/10/14 04:07:23;;;;;;;;;;;21.10;55.90;;;;;;5047980;28;19917;-73
2022/10/14 04:09:48;;;;;;;;;;;21.20;56.00;;;;;;5059631;28;19913;-73
2022/10/14 04:12:13;;;;;;;;;;;21.20;56.00;;;;;;5053709;28;19920;-73
2022/10/14 04:14:39;;;;;;;;;;;21.20;56.00;;;;;;5053935;28;19909;-74
2022/10/14 04:17:04;;;;;;;;;;;21.20;56.00;;;;;;5035366;28;19996;-73
2022/10/14 04:19:30;;;;;;;;;;;21.20;56.00;;;;;;5053736;28;20342;-73
2022/10/14 04:21:55;;;;;;;;;;;21.20;56.00;;;;;;5052239;28;19913;-73
2022/10/14 04:24:21;;;;;;;;;;;21.20;55.90;;;;;;5032670;28;19916;-73
2022/10/14 04:26:48;;;;;;;;;;;21.20;55.90;;;;;;5048733;28;19913;-74
2022/10/14 04:29:14;;;;;;;;;;;21.20;55.80;;;;;;5052724;28;19924;-73
2022/10/14 04:31:39;;;;;;;;;;;21.20;55.80;;;;;;5051540;28;20019;-73
2022/10/14 04:34:04;;;;;;;;;;;21.20;55.80;;;;;;5035930;28;19939;-73
2022/10/14 04:36:30;;;;;;;;;;;21.20;55.80;;;;;;5052384;28;19935;-73
2022/10/14 04:38:55;;;;;;;;;;;21.20;55.80;;;;;;5035175;28;19924;-73
2022/10/14 04:41:21;;;;;;;;;;;21.20;55.80;;;;;;5051487;28;20272;-73
2022/10/14 04:43:46;;;;;;;;;;;21.20;55.80;;;;;;5050417;28;19916;-73
2022/10/14 04:46:12;;;;;;;;;;;21.20;55.90;;;;;;5047235;28;19919;-73
2022/10/14 04:48:37;;;;;;;;;;;21.20;56.00;;;;;;5052278;28;19962;-73
2022/10/14 04:51:03;;;;;;;;;;;21.20;56.00;;;;;;5052222;28;19920;-73
2022/10/14 04:53:28;;;;;;;;;;;21.10;55.90;;;;;;5053261;28;19951;-74
2022/10/14 04:55:54;;;;;;;;;;;21.20;56.00;;;;;;5052508;28;19909;-74
2022/10/14 04:58:19;;;;;;;;;;;21.10;56.50;;;;;;5053242;28;19909;-73
2022/10/14 05:00:44;;;;;;;;;;;21.10;55.90;;;;;;5033375;28;20003;-73
2022/10/14 05:03:10;;;;;;;;;;;21.10;55.90;;;;;;5046250;28;19916;-73
2022/10/14 05:05:35;;;;;;;;;;;21.10;55.90;;;;;;5030163;28;19964;-73
2022/10/14 05:08:01;;;;;;;;;;;21.20;56.00;;;;;;5050409;28;19982;-73
2022/10/14 05:10:26;;;;;;;;;;;21.10;55.90;;;;;;5034396;28;19920;-73
2022/10/14 05:12:52;;;;;;;;;;;21.10;55.90;;;;;;5034558;28;19915;-73
2022/10/14 05:15:17;;;;;;;;;;;21.10;55.90;;;;;;5034804;28;19909;-73
2022/10/14 05:17:43;;;;;;;;;;;21.10;55.90;;;;;;5047450;28;19913;-73
2022/10/14 05:20:09;;;;;;;;;;;21.10;55.90;;;;;;5034671;28;20378;-73
2022/10/14 05:22:34;;;;;;;;;;;21.10;55.90;;;;;;5033255;28;19916;-73
2022/10/14 05:25:00;;;;;;;;;;;21.10;55.90;;;;;;5047980;28;20367;-73
2022/10/14 05:27:25;;;;;;;;;;;21.10;55.90;;;;;;5039991;28;20580;-74
2022/10/14 05:29:51;;;;;;;;;;;21.00;55.80;;;;;;5031617;28;20344;-73
2022/10/14 05:32:16;;;;;;;;;;;21.00;55.80;;;;;;5030873;28;20346;-73
2022/10/14 05:34:42;;;;;;;;;;;21.10;55.90;;;;;;5047043;28;20680;-73
2022/10/14 05:37:07;;;;;;;;;;;21.00;55.90;;;;;;5046874;28;19920;-73
2022/10/14 05:39:32;;;;;;;;;;;21.00;55.80;;;;;;5045933;28;19999;-72
2022/10/14 05:41:58;;;;;;;;;;;21.00;55.80;;;;;;5052024;28;19908;-73
2022/10/14 05:44:23;;;;;;;;;;;21.00;55.90;;;;;;5033433;28;19966;-73
2022/10/14 05:46:49;;;;;;;;;;;21.00;56.00;;;;;;5051004;28;19920;-73
2022/10/14 05:49:14;;;;;;;;;;;21.00;56.00;;;;;;5031833;28;19917;-74
2022/10/14 05:51:40;;;;;;;;;;;21.00;56.10;;;;;;5051939;28;19917;-73
2022/10/14 05:54:05;;;;;;;;;;;21.00;56.10;;;;;;5039951;28;19913;-73
2022/10/14 05:56:31;;;;;;;;;;;21.00;56.10;;;;;;5045641;28;20360;-73
2022/10/14 05:58:56;;;;;;;;;;;21.00;56.00;;;;;;5044806;28;19917;-73
2022/10/14 06:01:22;;;;;;;;;;;21.00;56.00;;;;;;5046024;28;19913;-73
2022/10/14 06:03:50;;;;;;;;;;;21.00;55.90;;;;;;5032500;28;19913;-73
2022/10/14 06:06:16;;;;;;;;;;;21.00;56.10;;;;;;5050295;28;19924;-73
2022/10/14 06:08:41;;;;;;;;;;;21.00;56.50;;;;;;5033023;28;19986;-73
2022/10/14 06:11:07;;;;;;;;;;;21.00;55.90;;;;;;5051249;28;19945;-73
2022/10/14 06:13:33;;;;;;;;;;;21.00;55.80;;;;;;5051913;28;19999;-73
2022/10/14 06:16:02;;;;;;;;;;;21.00;55.90;;;;;;5038994;28;19913;-73
2022/10/14 06:18:27;;;;;;;;;;;21.00;55.90;;;;;;5027018;28;19990;-73
2022/10/14 06:20:53;;;;;;;;;;;21.00;55.90;;;;;;5051572;28;19948;-73
2022/10/14 06:23:18;;;;;;;;;;;21.00;56.00;;;;;;5033424;28;19912;-74
2022/10/14 06:25:44;;;;;;;;;;;21.00;56.00;;;;;;5051838;28;19916;-73
2022/10/14 06:28:09;;;;;;;;;;;21.00;56.00;;;;;;5051634;28;19917;-73
2022/10/14 06:30:35;;;;;;;;;;;21.00;55.90;;;;;;5033985;28;19995;-73
2022/10/14 06:33:00;;;;;;;;;;;21.00;56.00;;;;;;5046501;28;19952;-73
2022/10/14 06:35:26;;;;;;;;;;;21.10;56.10;;;;;;5026814;28;19917;-73
2022/10/14 06:37:51;;;;;;;;;;;21.00;56.30;;;;;;5026162;28;19971;-73
2022/10/14 06:40:17;;;;;;;;;;;21.10;56.10;;;;;;5046350;28;19960;-73
2022/10/14 06:42:42;;;;;;;;;;;21.00;56.00;;;;;;5050577;28;19917;-73
2022/10/14 06:45:08;;;;;;;;;;;21.10;56.10;;;;;;5026288;28;19917;-73
2022/10/14 06:47:33;;;;;;;;;;;21.00;56.10;;;;;;5044813;28;19917;-73
2022/10/14 06:49:58;;;;;;;;;;;21.00;56.10;;;;;;5042804;28;19921;-73
2022/10/14 06:52:24;;;;;;;;;;;21.00;56.10;;;;;;5045145;28;19958;-73
2022/10/14 06:54:49;;;;;;;;;;;21.00;56.10;;;;;;5044036;28;19919;-73
2022/10/14 06:57:15;;;;;;;;;;;21.00;56.10;;;;;;5044160;28;19917;-73
2022/10/14 06:59:41;;;;;;;;;;;21.00;56.20;;;;;;5023888;28;19917;-73
2022/10/14 07:02:07;;;;;;;;;;;21.00;56.20;;;;;;5041543;28;20384;-73
2022/10/14 07:04:33;;;;;;;;;;;21.00;56.20;;;;;;5044079;28;19913;-72
2022/10/14 07:06:58;;;;;;;;;;;21.00;56.20;;;;;;5021177;28;19936;-72
2022/10/14 07:09:23;;;;;;;;;;;21.00;56.30;;;;;;5044294;28;20019;-74
2022/10/14 07:11:49;;;;;;;;;;;21.00;56.40;;;;;;5046426;28;19948;-73
2022/10/14 07:14:14;;;;;;;;;;;21.10;57.20;;;;;;5047242;28;19917;-74
2022/10/14 07:16:41;;;;;;;;;;;21.10;56.50;;;;;;5030958;28;19928;-74
2022/10/14 07:19:07;;;;;;;;;;;21.10;56.50;;;;;;5046614;28;19917;-73
2022/10/14 07:21:32;;;;;;;;;;;21.10;56.50;;;;;;5046529;28;19999;-74
2022/10/14 07:23:58;;;;;;;;;;;21.00;56.60;;;;;;5028338;28;20345;-74
2022/10/14 07:26:23;;;;;;;;;;;21.10;56.70;;;;;;5052796;28;20442;-74
2022/10/14 07:28:49;;;;;;;;;;;21.00;56.70;;;;;;5026745;28;20478;-74
2022/10/14 07:31:14;;;;;;;;;;;21.10;56.90;;;;;;5024073;28;20653;-73
2022/10/14 07:33:40;;;;;;;;;;;21.00;57.00;;;;;;5017483;28;20312;-73
2022/10/14 07:36:06;;;;;;;;;;;21.00;57.10;;;;;;5048829;28;19917;-74
2022/10/14 07:38:32;;;;;;;;;;;21.00;57.00;;;;;;5032273;28;19916;-74
2022/10/14 07:40:57;;;;;;;;;;;21.00;57.00;;;;;;5048651;28;19920;-74
2022/10/14 07:43:22;;;;;;;;;;;21.10;57.00;;;;;;5047007;28;19996;-74
2022/10/14 07:45:49;;;;;;;;;;;21.10;57.00;;;;;;5046575;28;19963;-74
2022/10/14 07:48:15;;;;;;;;;;;21.00;56.80;;;;;;5016750;28;19920;-74
2022/10/14 07:50:40;;;;;;;;;;;21.00;57.00;;;;;;5032142;28;20354;-74
2022/10/14 07:53:06;;;;;;;;;;;21.10;57.00;;;;;;5047739;28;20004;-74
2022/10/14 07:55:31;;;;;;;;;;;21.10;57.00;;;;;;5015389;28;19916;-74
2022/10/14 07:57:57;;;;;;;;;;;21.10;57.00;;;;;;5046704;28;20257;-74
2022/10/14 08:00:22;;;;;;;;;;;21.10;57.60;;;;;;5048878;28;19912;-73
2022/10/14 08:02:48;;;;;;;;;;;21.00;56.90;;;;;;5045993;28;19975;-76
2022/10/14 08:05:13;;;;;;;;;;;21.00;56.90;;;;;;5024217;28;19932;-74
2022/10/14 08:07:38;;;;;;;;;;;21.00;56.90;;;;;;5030712;28;20017;-74
2022/10/14 08:10:04;;;;;;;;;;;21.00;56.90;;;;;;5027044;28;19920;-74
2022/10/14 08:12:29;;;;;;;;;;;21.00;57.00;;;;;;5030639;28;19920;-74
2022/10/14 08:14:56;;;;;;;;;;;21.10;56.90;;;;;;5029985;28;19970;-73
2022/10/14 08:17:22;;;;;;;;;;;21.00;56.80;;;;;;5027456;28;19959;-74
2022/10/14 08:19:48;;;;;;;;;;;21.10;56.90;;;;;;5015457;28;19983;-74
2022/10/14 08:22:14;;;;;;;;;;;21.10;57.00;;;;;;5009941;28;19913;-74
2022/10/14 08:24:39;;;;;;;;;;;21.10;56.90;;;;;;5028788;28;19913;-74
2022/10/14 08:27:06;;;;;;;;;;;21.00;56.80;;;;;;5027088;28;19952;-74
2022/10/14 08:29:32;;;;;;;;;;;21.10;56.90;;;;;;5030449;28;19921;-74
2022/10/14 08:31:57;;;;;;;;;;;21.10;56.90;;;;;;5024122;28;19913;-74
2022/10/14 08:34:23;;;;;;;;;;;21.00;56.80;;;;;;5024298;28;19913;-74
2022/10/14 08:36:49;;;;;;;;;;;21.00;56.80;;;;;;5033312;28;19920;-74
2022/10/14 08:39:18;;;;;;;;;;;21.00;56.80;;;;;;5027361;28;19921;-74
2022/10/14 08:41:53;;;;;;;;;;;21.10;56.90;;;;;;5010850;28;19920;-74
2022/10/14 08:44:22;;;;;;;;;;;21.00;56.80;;;;;;5024009;28;19917;-74
2022/10/14 08:46:57;;;;;;;;;;;21.00;56.80;;;;;;5025038;28;19976;-74
2022/10/14 08:49:25;;;;;;;;;;;21.00;56.90;;;;;;5028903;28;19924;-74
2022/10/14 08:51:52;;;;;;;;;;;21.10;56.80;;;;;;5027978;28;20434;-73
2022/10/14 08:54:21;;;;;;;;;;;21.10;56.80;;;;;;5027050;28;19964;-74
2022/10/14 08:56:47;;;;;;;;;;;21.00;56.80;;;;;;5027062;28;20366;-74
2022/10/14 08:59:13;;;;;;;;;;;21.10;56.80;;;;;;5013609;28;19928;-73
2022/10/14 09:01:49;;;;;;;;;;;21.10;56.80;;;;;;5009302;28;19988;-73
2022/10/14 09:04:15;;;;;;;;;;;21.10;56.80;;;;;;5025971;28;19913;-74
2022/10/14 09:06:42;;;;;;;;;;;21.10;56.70;;;;;;5027413;28;19921;-74
2022/10/14 09:09:07;;;;;;;;;;;21.10;56.70;;;;;;5042182;28;19931;-74
2022/10/14 09:11:36;;;;;;;;;;;21.10;56.70;;;;;;5045287;28;20288;-73
2022/10/14 09:14:01;;;;;;;;;;;21.10;56.60;;;;;;5043116;28;19925;-74
2022/10/14 09:16:30;;;;;;;;;;;21.10;56.60;;;;;;5028045;28;19963;-74
2022/10/14 09:18:56;;;;;;;;;;;21.10;56.50;;;;;;5008161;28;19913;-74
2022/10/14 09:21:22;;;;;;;;;;;21.10;56.50;;;;;;5028496;28;19921;-74
2022/10/14 09:23:48;;;;;;;;;;;21.10;56.50;;;;;;5042494;28;19920;-74
2022/10/14 09:26:16;;;;;;;;;;;21.20;56.60;;;;;;5028188;28;19920;-74
2022/10/14 09:28:42;;;;;;;;;;;21.20;56.60;;;;;;5025558;28;20072;-73
2022/10/14 09:31:09;;;;;;;;;;;21.20;56.60;;;;;;5023484;28;19917;-75
2022/10/14 09:33:38;;;;;;;;;;;21.20;56.60;;;;;;5027100;28;19913;-75
2022/10/14 09:36:24;;;;;;;;;;;21.10;56.50;;;;;;5044793;28;19917;-75
2022/10/14 09:38:53;;;;;;;;;;;21.10;56.30;;;;;;5037585;28;20377;-75
2022/10/14 09:41:20;;;;;;;;;;;21.10;56.30;;;;;;5040897;28;19917;-74
2022/10/14 09:44:04;;;;;;;;;;;21.00;56.10;;;;;;5025919;28;19912;-74
2022/10/14 09:46:29;;;;;;;;;;;21.00;56.10;;;;;;5043289;28;20414;-75
2022/10/14 09:48:55;;;;;;;;;;;21.10;56.30;;;;;;5027006;28;20000;-75
2022/10/14 09:51:22;;;;;;;;;;;21.00;56.40;;;;;;5045751;28;20539;-74
2022/10/14 09:53:48;;;;;;;;;;;21.10;56.20;;;;;;5045771;28;19975;-75
2022/10/14 09:56:14;;;;;;;;;;;21.00;56.10;;;;;;5022610;28;19920;-74
2022/10/14 09:58:42;;;;;;;;;;;21.00;56.20;;;;;;5024369;28;19913;-75
2022/10/14 10:01:13;;;;;;;;;;;20.90;56.20;;;;;;5043216;28;19974;-74
2022/10/14 10:03:39;;;;;;;;;;;21.00;56.10;;;;;;5029907;28;19913;-75
2022/10/14 10:06:05;;;;;;;;;;;21.00;56.00;;;;;;5026846;28;20437;-75
2022/10/14 10:08:31;;;;;;;;;;;21.00;55.80;;;;;;5044609;28;19920;-75
2022/10/14 10:11:09;;;;;;;;;;;20.90;55.70;;;;;;5027131;28;20038;-74
2022/10/14 10:13:39;;;;;;;;;;;20.80;55.80;;;;;;5020871;28;19913;-75
2022/10/14 10:16:04;;;;;;;;;;;20.80;55.90;;;;;;5044492;28;19986;-74
2022/10/14 10:18:30;;;;;;;;;;;20.80;55.90;;;;;;5044353;28;19917;-75
2022/10/14 10:21:05;;;;;;;;;;;20.80;55.80;;;;;;5021929;28;19921;-75
2022/10/14 10:23:31;;;;;;;;;;;20.80;55.90;;;;;;5029465;28;19921;-74
2022/10/14 10:26:08;;;;;;;;;;;20.90;56.00;;;;;;5023308;28;20008;-75
2022/10/14 10:28:34;;;;;;;;;;;20.90;55.80;;;;;;5031257;28;19925;-76
2022/10/14 10:31:02;;;;;;;;;;;20.80;56.00;;;;;;5043136;28;19920;-75
2022/10/14 10:33:36;;;;;;;;;;;20.80;56.10;;;;;;5044716;28;19913;-75
2022/10/14 10:36:21;;;;;;;;;;;20.80;56.10;;;;;;5027583;28;20349;-74
2022/10/14 10:39:04;;;;;;;;;;;20.80;56.10;;;;;;5025827;28;20262;-73
2022/10/14 10:41:36;;;;;;;;;;;20.80;56.20;;;;;;5023750;28;19949;-74
2022/10/14 10:44:18;;;;;;;;;;;20.80;56.30;;;;;;5047882;28;19943;-74
2022/10/14 10:46:50;;;;;;;;;;;20.80;56.40;;;;;;5033071;28;19919;-74
2022/10/14 10:49:24;;;;;;;;;;;20.90;56.30;;;;;;5036885;28;20400;-75
2022/10/14 10:52:07;;;;;;;;;;;20.90;56.20;;;;;;5047186;28;19990;-74
2022/10/14 10:54:45;;;;;;;;;;;20.90;56.10;;;;;;5033382;28;19920;-74
2022/10/14 10:57:29;;;;;;;;;;;21.00;56.10;;;;;;5029544;28;19975;-75
2022/10/14 10:59:57;;;;;;;;;;;20.90;56.30;;;;;;5049334;28;19913;-75
2022/10/14 11:02:25;;;;;;;;;;;20.90;56.30;;;;;;5047448;28;19920;-74
2022/10/14 11:04:53;;;;;;;;;;;20.80;56.10;;;;;;5048406;28;19924;-75
2022/10/14 11:13:11;;;;;;;;;;;20.80;56.30;;;;;;5061890;28;19959;-75
2022/10/14 11:15:48;;;;;;;;;;;20.90;56.40;;;;;;5036316;28;19923;-74
2022/10/14 11:18:20;;;;;;;;;;;20.90;56.40;;;;;;5054648;28;19935;-75
2022/10/14 11:20:53;;;;;;;;;;;20.90;56.30;;;;;;5036897;28;19909;-75
2022/10/14 11:23:18;;;;;;;;;;;20.90;56.40;;;;;;5009591;28;19965;-75
2022/10/14 11:26:07;;;;;;;;;;;20.90;56.50;;;;;;5046601;28;20405;-75
2022/10/14 11:28:45;;;;;;;;;;;20.90;56.40;;;;;;4997148;28;20372;-74
2022/10/14 11:31:17;;;;;;;;;;;20.90;56.30;;;;;;5026264;28;19913;-74
2022/10/14 11:34:06;;;;;;;;;;;20.90;56.30;;;;;;5049076;28;19916;-75
2022/10/14 11:36:51;;;;;;;;;;;20.90;56.30;;;;;;5009219;28;21801;-75
2022/10/14 11:39:23;;;;;;;;;;;20.90;56.30;;;;;;5024768;28;20066;-75
2022/10/14 11:42:12;;;;;;;;;;;20.80;56.30;;;;;;5023635;28;20416;-74
2022/10/14 11:44:39;;;;;;;;;;;20.80;56.00;;;;;;5037068;28;19912;-74
2022/10/14 11:47:11;;;;;;;;;;;20.70;56.20;;;;;;5046603;28;20388;-74
2022/10/14 11:49:40;;;;;;;;;;;20.80;56.60;;;;;;5012017;28;20307;-74
2022/10/14 11:52:06;;;;;;;;;;;20.70;56.70;;;;;;5047151;28;19920;-74
2022/10/14 11:54:45;;;;;;;;;;;20.70;56.70;;;;;;5028047;28;19920;-74
2022/10/14 11:57:25;;;;;;;;;;;20.70;56.70;;;;;;5027183;28;19917;-75
2022/10/14 12:00:03;;;;;;;;;;;20.70;56.70;;;;;;5027465;28;20008;-75
2022/10/14 12:02:47;;;;;;;;;;;20.80;56.70;;;;;;5029796;28;19963;-75
2022/10/14 12:05:16;;;;;;;;;;;20.80;56.70;;;;;;5047696;28;19929;-75
2022/10/14 12:07:44;;;;;;;;;;;20.80;56.70;;;;;;5045285;28;19932;-75
2022/10/14 12:10:21;;;;;;;;;;;20.70;56.70;;;;;;5017231;28;20491;-75
2022/10/14 12:12:46;;;;;;;;;;;20.70;56.70;;;;;;5040463;28;19986;-75
2022/10/14 12:15:16;;;;;;;;;;;20.80;56.90;;;;;;5014217;28;19921;-75
2022/10/14 12:17:53;;;;;;;;;;;20.70;56.70;;;;;;5031872;28;19928;-75
2022/10/14 12:20:25;;;;;;;;;;;20.80;56.70;;;;;;5045902;28;19919;-75
2022/10/14 12:22:51;;;;;;;;;;;20.80;56.80;;;;;;5047830;28;19920;-75
2022/10/14 12:25:17;;;;;;;;;;;20.80;56.80;;;;;;5026249;28;20400;-74
2022/10/14 12:27:42;;;;;;;;;;;20.80;56.80;;;;;;5032973;28;20318;-75
2022/10/14 12:30:26;;;;;;;;;;;20.80;56.80;;;;;;5045402;28;19917;-74
2022/10/14 12:32:58;;;;;;;;;;;20.70;56.70;;;;;;5042918;28;19925;-75
2022/10/14 12:35:50;;;;;;;;;;;20.70;56.80;;;;;;5031064;28;19956;-75
2022/10/14 12:38:16;;;;;;;;;;;20.70;56.90;;;;;;5042690;28;20007;-75
2022/10/14 12:40:41;;;;;;;;;;;20.70;57.00;;;;;;5026920;28;20377;-74
2022/10/14 12:43:25;;;;;;;;;;;20.70;57.00;;;;;;5031902;28;19920;-74
2022/10/14 12:45:59;;;;;;;;;;;20.70;57.00;;;;;;5028197;28;19919;-74
2022/10/14 12:48:25;;;;;;;;;;;20.70;57.00;;;;;;5045329;28;19916;-75
2022/10/14 12:50:56;;;;;;;;;;;20.70;57.00;;;;;;5028902;28;19913;-75
2022/10/14 12:53:25;;;;;;;;;;;20.70;57.00;;;;;;5011316;28;20194;-74
2022/10/14 12:55:58;;;;;;;;;;;20.70;57.00;;;;;;5025189;28;19931;-74
2022/10/14 12:58:25;;;;;;;;;;;20.70;56.90;;;;;;5027237;28;19920;-74
2022/10/14 13:00:54;;;;;;;;;;;20.80;56.80;;;;;;5024698;28;19920;-74
2022/10/14 13:03:25;;;;;;;;;;;20.80;56.80;;;;;;5023595;28;20015;-74
2022/10/14 13:05:51;;;;;;;;;;;20.80;56.80;;;;;;5028629;28;19928;-75
2022/10/14 13:08:19;;;;;;;;;;;20.70;56.80;;;;;;5052237;28;19924;-75
2022/10/14 13:10:47;;;;;;;;;;;20.80;57.00;;;;;;5044638;28;19913;-74
2022/10/14 13:13:31;;;;;;;;;;;20.70;56.90;;;;;;5047232;28;21177;-74
2022/10/14 13:15:58;;;;;;;;;;;20.70;57.00;;;;;;5041894;28;19916;-75
2022/10/14 13:18:27;;;;;;;;;;;20.80;57.10;;;;;;5046764;28;20560;-74
2022/10/14 13:20:52;;;;;;;;;;;20.80;57.10;;;;;;5045365;28;19924;-74
2022/10/14 13:23:30;;;;;;;;;;;20.70;57.10;;;;;;5021979;28;19920;-74
2022/10/14 13:26:06;;;;;;;;;;;20.70;57.20;;;;;;5044162;28;19967;-77
2022/10/14 13:28:34;;;;;;;;;;;20.70;57.40;;;;;;5023958;28;19921;-75
2022/10/14 13:30:59;;;;;;;;;;;20.60;57.40;;;;;;5028156;28;20316;-74
2022/10/14 13:33:30;;;;;;;;;;;20.60;57.50;;;;;;5029498;28;19917;-75
2022/10/14 13:36:02;;;;;;;;;;;20.60;57.50;;;;;;5027590;28;19923;-74
2022/10/14 13:38:28;;;;;;;;;;;20.60;57.60;;;;;;5028904;28;19912;-74
2022/10/14 13:40:54;;;;;;;;;;;20.60;57.60;;;;;;5027371;28;19914;-74
2022/10/14 13:43:39;;;;;;;;;;;20.60;57.60;;;;;;5031841;28;19956;-75
2022/10/14 13:46:05;;;;;;;;;;;20.60;57.70;;;;;;5010770;28;20380;-75
2022/10/14 13:48:35;;;;;;;;;;;20.60;57.70;;;;;;5024319;28;19920;-74
2022/10/14 13:51:05;;;;;;;;;;;20.60;57.70;;;;;;5045172;28;19924;-74
2022/10/14 13:53:30;;;;;;;;;;;20.60;57.70;;;;;;5013057;28;19917;-74
2022/10/14 13:55:57;;;;;;;;;;;20.60;57.70;;;;;;5032991;28;20292;-75
2022/10/14 13:58:23;;;;;;;;;;;20.70;57.70;;;;;;5033739;28;19996;-75
2022/10/14 14:00:57;;;;;;;;;;;20.60;57.60;;;;;;5050123;28;20565;-74
2022/10/14 14:03:24;;;;;;;;;;;20.60;57.70;;;;;;5051452;28;19916;-75
2022/10/14 14:05:50;;;;;;;;;;;20.60;57.70;;;;;;5050538;28;19921;-75
2022/10/14 14:08:25;;;;;;;;;;;20.60;57.70;;;;;;5047823;28;19924;-74
2022/10/14 14:10:59;;;;;;;;;;;20.60;57.70;;;;;;5023374;28;19913;-74
2022/10/14 14:13:28;;;;;;;;;;;20.60;57.70;;;;;;5011545;28;19917;-74
2022/10/14 14:15:54;;;;;;;;;;;20.60;57.70;;;;;;5026054;28;20418;-75
2022/10/14 14:18:35;;;;;;;;;;;20.60;57.70;;;;;;5025900;28;19913;-75
2022/10/14 14:21:01;;;;;;;;;;;20.60;57.70;;;;;;5029209;28;19920;-75
2022/10/14 14:23:26;;;;;;;;;;;20.60;57.80;;;;;;5032092;28;19936;-75
2022/10/14 14:25:52;;;;;;;;;;;20.60;57.90;;;;;;5032929;28;19917;-75
2022/10/14 14:28:17;;;;;;;;;;;20.60;57.90;;;;;;5032002;28;19944;-74